createdAt,value
2022-09-12T00:04:07.565Z,66441.63
2022-09-12T00:09:13.955Z,66456.19
2022-09-12T00:14:20.046Z,66510.34
2022-09-12T00:19:25.061Z,66492.72
2022-09-12T00:24:29.325Z,66447.53
2022-09-12T00:29:33.355Z,66386.41
2022-09-12T00:34:38.700Z,66422.91
2022-09-12T00:39:42.383Z,66401.41
2022-09-12T00:44:49.869Z,66409.50
2022-09-12T00:49:59.567Z,66422.28
2022-09-12T00:55:07.660Z,66414.31
2022-09-12T01:00:15.767Z,66407.34
2022-09-12T01:05:22.909Z,66441.78
2022-09-12T01:10:27.075Z,66442.25
2022-09-12T01:15:31.916Z,66426.13
2022-09-12T01:20:54.805Z,66399.09
2022-09-12T01:26:16.676Z,66414.78
2022-09-12T01:31:30.742Z,66401.94
2022-09-12T01:36:41.465Z,66368.28
2022-09-12T01:41:53.966Z,66343.44
2022-09-12T01:47:05.575Z,66352.94
2022-09-12T01:52:15.604Z,66398.75
2022-09-12T01:57:25.125Z,66384.78
2022-09-12T02:02:34.746Z,66397.13
2022-09-12T02:07:42.067Z,66353.09
2022-09-12T02:12:49.838Z,66390.75
2022-09-12T02:17:59.269Z,66366.44
2022-09-12T02:23:08.325Z,66414.41
2022-09-12T02:28:15.880Z,66339.63
2022-09-12T02:33:27.741Z,66305.81
2022-09-12T02:38:36.645Z,66355.28
2022-09-12T02:43:40.607Z,66358.47
2022-09-12T02:48:45.991Z,66340.22
2022-09-12T02:53:50.243Z,66311.78
2022-09-12T02:58:58.382Z,66348.81
2022-09-12T03:04:22.395Z,66334.25
2022-09-12T03:09:37.709Z,66328.88
2022-09-12T03:15:10.963Z,66338.16
2022-09-12T03:20:21.973Z,66298.84
2022-09-12T03:25:32.326Z,66269.34
2022-09-12T03:30:40.727Z,66273.81
2022-09-12T03:35:46.072Z,66264.06
2022-09-12T03:40:54.549Z,66276.41
2022-09-12T03:45:59.546Z,66255.56
2022-09-12T03:51:06.898Z,66246.09
2022-09-12T03:56:12.927Z,66230.28
2022-09-12T04:01:19.484Z,66241.03
2022-09-12T04:06:25.200Z,66208.81
2022-09-12T04:11:28.985Z,66239.84
2022-09-12T04:16:33.273Z,66212.06
2022-09-12T04:21:39.579Z,66261.94
2022-09-12T04:26:43.282Z,66254.88
2022-09-12T04:31:47.006Z,66254.41
2022-09-12T04:36:51.980Z,66293.78
2022-09-12T04:41:55.694Z,66293.66
2022-09-12T04:46:59.422Z,66281.78
2022-09-12T04:52:08.178Z,66267.75
2022-09-12T04:57:11.939Z,66296.72
2022-09-12T05:02:16.442Z,66322.00
2022-09-12T05:07:21.547Z,66268.34
2022-09-12T05:12:25.763Z,66324.75
2022-09-12T05:17:30.365Z,66305.19
2022-09-12T05:22:35.363Z,66317.09
2022-09-12T05:27:39.308Z,66407.22
2022-09-12T05:32:43.010Z,66357.94
2022-09-12T05:37:48.336Z,66335.31
2022-09-12T05:42:52.010Z,66373.41
2022-09-12T05:47:55.814Z,66393.34
2022-09-12T05:53:01.388Z,66425.50
2022-09-12T05:58:05.168Z,66376.09
2022-09-12T06:03:08.899Z,66373.34
2022-09-12T06:08:13.959Z,66372.34
2022-09-12T06:13:17.651Z,66384.22
2022-09-12T06:18:21.896Z,66399.88
2022-09-12T06:23:27.656Z,66373.59
2022-09-12T06:28:31.902Z,66393.81
2022-09-12T06:33:37.411Z,66365.47
2022-09-12T06:38:42.838Z,66428.97
2022-09-12T06:43:46.710Z,66380.41
2022-09-12T06:48:50.597Z,66412.97
2022-09-12T06:53:58.281Z,66449.13
2022-09-12T06:59:02.249Z,66442.31
2022-09-12T07:04:06.025Z,66380.56
2022-09-12T07:09:13.360Z,66415.84
2022-09-12T07:14:17.329Z,66330.66
2022-09-12T07:19:21.190Z,66368.06
2022-09-12T07:24:26.524Z,66393.34
2022-09-12T07:29:36.857Z,66443.31
2022-09-12T07:34:42.104Z,66477.06
2022-09-12T07:39:47.419Z,66434.72
2022-09-12T07:44:52.663Z,66509.28
2022-09-12T07:49:56.760Z,66512.06
2022-09-12T07:55:02.592Z,66527.16
2022-09-12T08:00:07.807Z,66521.63
2022-09-12T08:05:16.236Z,66471.25
2022-09-12T08:10:21.522Z,66486.91
2022-09-12T08:15:26.113Z,66519.97
2022-09-12T08:20:30.745Z,66530.16
2022-09-12T08:25:35.951Z,66499.16
2022-09-12T08:30:39.888Z,66436.84
2022-09-12T08:35:46.103Z,66495.41
2022-09-12T08:40:58.886Z,66542.69
2022-09-12T08:46:10.186Z,66548.59
2022-09-12T08:51:18.381Z,66654.59
2022-09-12T08:56:24.557Z,66560.44
2022-09-12T09:01:34.002Z,66523.34
2022-09-12T09:06:58.415Z,66571.19
2022-09-12T09:12:14.115Z,66616.88
2022-09-12T09:17:25.326Z,66581.31
2022-09-12T09:22:37.694Z,66501.41
2022-09-12T09:27:50.426Z,66428.28
2022-09-12T09:32:58.580Z,66368.50
2022-09-12T09:38:09.414Z,66437.84
2022-09-12T09:43:22.980Z,66402.50
2022-09-12T09:48:30.712Z,66452.97
2022-09-12T09:53:41.456Z,66486.28
2022-09-12T09:58:46.886Z,66542.69
2022-09-12T10:03:53.070Z,66400.81
2022-09-12T10:09:19.724Z,66455.59
2022-09-12T10:14:35.180Z,66553.34
2022-09-12T10:19:41.516Z,66478.75
2022-09-12T10:24:52.406Z,66538.38
2022-09-12T10:30:04.146Z,66559.88
2022-09-12T10:35:19.728Z,66422.75
2022-09-12T10:40:26.471Z,66416.00
2022-09-12T10:45:35.614Z,66420.16
2022-09-12T10:50:42.445Z,66461.03
2022-09-12T10:56:03.032Z,66429.72
2022-09-12T11:01:20.512Z,66429.34
2022-09-12T11:06:31.984Z,66498.53
2022-09-12T11:11:46.995Z,66433.66
2022-09-12T11:17:01.773Z,66502.38
2022-09-12T11:22:20.355Z,66486.72
2022-09-12T11:27:38.726Z,66451.28
2022-09-12T11:33:24.744Z,66499.63
2022-09-12T11:38:44.277Z,66401.94
2022-09-12T11:43:52.949Z,66361.63
2022-09-12T11:49:02.382Z,66340.22
2022-09-12T11:54:19.736Z,66307.44
2022-09-12T11:59:34.936Z,66358.03
2022-09-12T12:04:51.076Z,66317.31
2022-09-12T12:09:55.804Z,66306.44
2022-09-12T12:15:00.517Z,66361.69
2022-09-12T12:20:08.791Z,66328.44
2022-09-12T12:25:40.145Z,66324.16
2022-09-12T12:31:03.369Z,66393.34
2022-09-12T12:36:10.492Z,66392.81
2022-09-12T12:41:45.648Z,66348.03
2022-09-12T12:47:16.432Z,66420.16
2022-09-12T12:52:22.075Z,66403.94
2022-09-12T12:57:43.796Z,66384.31
2022-09-12T13:02:53.571Z,66488.72
2022-09-12T13:15:55.979Z,66431.31
2022-09-12T13:21:11.441Z,66466.41
2022-09-12T13:26:25.311Z,66474.53
2022-09-12T13:31:31.071Z,66426.59
2022-09-12T13:36:53.522Z,66410.91
2022-09-12T13:42:37.261Z,66470.16
2022-09-12T13:47:44.641Z,66349.72
2022-09-12T13:52:53.398Z,66383.78
2022-09-12T13:57:59.906Z,66362.69
2022-09-12T14:03:37.095Z,66431.31
2022-09-12T14:08:42.255Z,66404.09
2022-09-12T14:13:46.573Z,66442.78
2022-09-12T14:18:52.712Z,66404.63
2022-09-12T14:23:57.392Z,66388.53
2022-09-12T14:29:02.551Z,66358.47
2022-09-12T14:34:14.020Z,66349.28
2022-09-12T14:39:23.489Z,66346.69
2022-09-12T14:44:29.602Z,66343.63
2022-09-12T14:49:37.397Z,66470.16
2022-09-12T14:54:43.789Z,66468.09
2022-09-12T14:59:48.019Z,66400.94
2022-09-12T15:04:55.332Z,66413.31
2022-09-12T15:10:01.535Z,66414.78
2022-09-12T15:15:15.421Z,66413.25
2022-09-12T15:20:20.817Z,66428.28
2022-09-12T15:25:25.247Z,66432.56
2022-09-12T15:30:29.333Z,66489.34
2022-09-12T15:35:34.768Z,66464.63
2022-09-12T15:40:40.247Z,66445.44
2022-09-12T15:45:45.356Z,66514.22
2022-09-12T15:50:50.730Z,66495.41
2022-09-12T15:55:54.909Z,66472.84
2022-09-12T16:01:00.054Z,66504.72
2022-09-12T16:06:05.713Z,66492.72
2022-09-12T16:11:13.345Z,66489.50
2022-09-12T16:16:18.209Z,66478.22
2022-09-12T16:21:24.464Z,66514.66
2022-09-12T16:26:28.272Z,66525.41
2022-09-12T16:31:32.432Z,66639.91
2022-09-12T16:36:37.725Z,66568.50
2022-09-12T16:41:42.315Z,66495.78
2022-09-12T16:46:46.322Z,66542.16
2022-09-12T16:51:51.627Z,66504.00
2022-09-12T16:56:55.686Z,66556.66
2022-09-12T17:02:00.323Z,66567.97
2022-09-12T17:07:06.427Z,66659.88
2022-09-12T17:12:10.534Z,66582.91
2022-09-12T17:17:14.428Z,66690.09
2022-09-12T17:22:20.186Z,66610.41
2022-09-12T17:27:24.769Z,66638.31
2022-09-12T17:32:30.871Z,66653.34
2022-09-12T17:37:37.497Z,66742.75
2022-09-12T17:42:42.224Z,66673.78
2022-09-12T17:47:46.376Z,66705.72
2022-09-12T17:52:51.954Z,66670.09
2022-09-12T17:57:56.064Z,66661.34
2022-09-12T18:03:00.137Z,66662.56
2022-09-12T18:08:05.915Z,66670.25
2022-09-12T18:13:09.802Z,66779.88
2022-09-12T18:18:14.524Z,66718.00
2022-09-12T18:23:20.025Z,66686.25
2022-09-12T18:28:24.111Z,66729.91
2022-09-12T18:33:28.196Z,66734.69
2022-09-12T18:38:33.622Z,66710.47
2022-09-12T18:43:37.969Z,66735.28
2022-09-12T18:48:42.009Z,66752.97
2022-09-12T18:53:53.096Z,66629.25
2022-09-12T18:58:58.255Z,66584.16
2022-09-12T19:04:04.825Z,66715.31
2022-09-12T19:09:11.538Z,66697.47
2022-09-12T19:14:16.539Z,66712.09
2022-09-12T19:19:20.922Z,66704.00
2022-09-12T19:24:27.284Z,66668.50
2022-09-12T19:29:31.531Z,66675.47
2022-09-12T19:34:35.451Z,66684.72
2022-09-12T19:39:43.145Z,66690.56
2022-09-12T19:44:47.307Z,66456.28
2022-09-12T19:49:51.236Z,66448.75
2022-09-12T19:54:56.504Z,66415.38
2022-09-12T20:00:00.787Z,66376.81
2022-09-12T20:05:06.023Z,66425.59
2022-09-12T20:10:14.259Z,66518.97
2022-09-12T20:15:19.170Z,66527.56
2022-09-12T20:20:25.253Z,66475.38
2022-09-12T20:25:33.135Z,66561.13
2022-09-12T20:30:37.166Z,66434.72
2022-09-12T20:35:41.083Z,66425.06
2022-09-12T20:40:50.627Z,66487.34
2022-09-12T20:45:54.387Z,66488.94
2022-09-12T20:50:59.829Z,66482.50
2022-09-12T20:56:07.059Z,66509.28
2022-09-12T21:01:12.421Z,66592.66
2022-09-12T21:06:19.065Z,66587.31
2022-09-12T21:11:24.286Z,66512.53
2022-09-12T21:16:28.457Z,66474.09
2022-09-12T21:21:32.670Z,66434.09
2022-09-12T21:26:38.292Z,66458.34
2022-09-12T21:31:44.074Z,66469.16
2022-09-12T21:36:48.314Z,66390.75
2022-09-12T21:41:53.545Z,66454.66
2022-09-12T21:46:57.800Z,66500.25
2022-09-12T21:52:01.743Z,66552.91
2022-09-12T21:57:07.291Z,66454.03
2022-09-12T22:02:12.530Z,66489.50
2022-09-12T22:07:16.391Z,66548.06
2022-09-12T22:12:21.656Z,66496.94
2022-09-12T22:17:25.518Z,66577.09
2022-09-12T22:22:47.011Z,66557.91
2022-09-12T22:27:52.665Z,66449.75
2022-09-12T22:32:56.561Z,66594.91
2022-09-12T22:38:00.414Z,66567.97
2022-09-12T22:43:06.743Z,66619.03
2022-09-12T22:48:11.225Z,66493.25
2022-09-12T22:53:26.311Z,66529.88
2022-09-12T22:58:31.849Z,66548.50
2022-09-12T23:03:36.479Z,66573.78
2022-09-12T23:08:41.609Z,66593.13
2022-09-12T23:13:49.436Z,66607.13
2022-09-12T23:18:54.581Z,66520.56
2022-09-12T23:23:58.640Z,66575.41
2022-09-12T23:29:05.732Z,66432.41
2022-09-12T23:34:13.195Z,66388.47
2022-09-12T23:39:17.181Z,66490.03
2022-09-12T23:44:22.610Z,66522.28
2022-09-12T23:49:29.210Z,66613.66
2022-09-12T23:54:33.708Z,66544.84
2022-09-12T23:59:39.320Z,66507.22
